createdAt,value
2023-05-17T00:01:46.151Z,77.00
2023-05-17T00:04:13.321Z,76.70
2023-05-17T00:06:41.009Z,76.60
2023-05-17T00:09:08.109Z,76.50
2023-05-17T00:11:35.352Z,76.50
2023-05-17T00:14:02.341Z,77.00
2023-05-17T00:16:29.298Z,77.00
2023-05-17T00:18:56.223Z,76.00
2023-05-17T00:21:23.081Z,75.80
2023-05-17T00:23:50.211Z,76.70
2023-05-17T00:26:17.498Z,76.30
2023-05-17T00:28:44.340Z,76.50
2023-05-17T00:31:11.279Z,76.30
2023-05-17T00:33:38.890Z,76.70
2023-05-17T00:36:05.988Z,76.70
2023-05-17T00:38:33.280Z,77.20
2023-05-17T00:41:00.667Z,76.30
2023-05-17T00:43:28.215Z,77.30
2023-05-17T00:45:55.130Z,76.50
2023-05-17T00:48:22.184Z,76.70
2023-05-17T00:50:49.393Z,76.10
2023-05-17T00:53:18.586Z,75.70
2023-05-17T00:55:46.816Z,75.90
2023-05-17T00:58:15.383Z,76.70
2023-05-17T01:00:43.369Z,76.50
2023-05-17T01:03:10.616Z,76.10
2023-05-17T01:05:37.511Z,76.60
2023-05-17T01:08:04.818Z,76.20
2023-05-17T01:10:44.131Z,76.40
2023-05-17T01:13:27.771Z,76.60
2023-05-17T01:16:10.490Z,76.30
2023-05-17T01:18:51.430Z,75.80
2023-05-17T01:21:33.383Z,75.90
2023-05-17T01:24:32.170Z,76.30
2023-05-17T01:27:00.553Z,76.60
2023-05-17T01:29:29.886Z,76.50
2023-05-17T01:31:59.451Z,76.90
2023-05-17T01:34:29.597Z,77.30
2023-05-17T01:36:58.096Z,77.60
2023-05-17T01:39:25.971Z,78.40
2023-05-17T01:42:05.022Z,78.40
2023-05-17T01:44:34.921Z,78.50
2023-05-17T01:47:13.763Z,78.40
2023-05-17T01:49:43.327Z,78.30
2023-05-17T01:52:24.363Z,78.80
2023-05-17T01:54:58.475Z,79.00
2023-05-17T01:57:32.461Z,78.70
2023-05-17T02:00:07.641Z,78.60
2023-05-17T02:02:34.825Z,78.60
2023-05-17T02:05:02.205Z,78.50
2023-05-17T02:07:30.119Z,78.40
2023-05-17T02:09:56.992Z,78.70
2023-05-17T02:12:25.399Z,78.20
2023-05-17T02:14:52.378Z,78.40
2023-05-17T02:17:20.085Z,77.90
2023-05-17T02:19:46.943Z,78.40
2023-05-17T02:22:14.823Z,78.20
2023-05-17T02:24:42.065Z,78.20
2023-05-17T02:27:10.211Z,78.10
2023-05-17T02:29:37.745Z,78.50
2023-05-17T02:32:06.206Z,78.20
2023-05-17T02:34:33.402Z,78.10
2023-05-17T02:37:00.729Z,78.30
2023-05-17T02:39:27.604Z,78.40
2023-05-17T02:41:54.932Z,78.60
2023-05-17T02:44:25.605Z,79.00
2023-05-17T02:46:53.912Z,79.00
2023-05-17T02:49:20.891Z,78.40
2023-05-17T02:51:48.420Z,78.40
2023-05-17T02:54:15.689Z,78.20
2023-05-17T02:56:43.932Z,78.70
2023-05-17T02:59:10.822Z,78.00
2023-05-17T03:01:38.272Z,78.00
2023-05-17T03:04:08.851Z,78.30
2023-05-17T03:06:41.481Z,78.40
2023-05-17T03:09:09.319Z,78.60
2023-05-17T03:11:38.404Z,78.10
2023-05-17T03:14:06.307Z,78.30
2023-05-17T03:16:34.047Z,78.60
2023-05-17T03:19:01.277Z,78.30
2023-05-17T03:21:29.048Z,79.10
2023-05-17T03:23:56.023Z,78.70
2023-05-17T03:26:24.991Z,79.00
2023-05-17T03:28:53.297Z,79.30
2023-05-17T03:31:20.473Z,78.90
2023-05-17T03:33:47.496Z,78.60
2023-05-17T03:36:14.744Z,78.30
2023-05-17T03:38:41.638Z,79.10
2023-05-17T03:41:08.913Z,79.00
2023-05-17T03:43:36.579Z,78.80
2023-05-17T03:46:03.430Z,79.10
2023-05-17T03:48:30.456Z,79.40
2023-05-17T03:50:58.602Z,79.40
2023-05-17T03:53:25.918Z,79.30
2023-05-17T03:55:53.047Z,79.40
2023-05-17T03:58:20.278Z,79.70
2023-05-17T04:00:47.512Z,79.70
2023-05-17T04:03:16.175Z,79.50
2023-05-17T04:05:46.622Z,79.80
2023-05-17T04:08:14.606Z,79.80
2023-05-17T04:10:46.954Z,79.60
2023-05-17T04:13:15.477Z,79.40
2023-05-17T04:15:45.026Z,79.20
2023-05-17T04:18:15.482Z,79.90
2023-05-17T04:20:43.153Z,80.10
2023-05-17T04:23:11.656Z,80.00
2023-05-17T04:25:40.047Z,79.90
2023-05-17T04:28:07.186Z,79.80
2023-05-17T04:30:34.250Z,79.30
2023-05-17T04:33:01.404Z,79.20
2023-05-17T04:35:28.619Z,79.30
2023-05-17T04:37:56.023Z,79.60
2023-05-17T04:40:23.452Z,79.00
2023-05-17T04:42:50.688Z,79.00
2023-05-17T04:45:17.740Z,78.70
2023-05-17T04:47:45.791Z,78.70
2023-05-17T04:50:12.998Z,78.80
2023-05-17T04:52:39.922Z,79.10
2023-05-17T04:55:07.209Z,78.50
2023-05-17T04:57:34.064Z,78.10
2023-05-17T05:00:14.116Z,78.20
2023-05-17T05:02:42.172Z,77.90
2023-05-17T05:05:09.756Z,77.90
2023-05-17T05:07:37.977Z,78.00
2023-05-17T05:10:06.187Z,77.30
2023-05-17T05:12:33.379Z,77.60
2023-05-17T05:15:01.178Z,77.60
2023-05-17T05:17:31.048Z,78.30
2023-05-17T05:19:58.361Z,78.40
2023-05-17T05:22:27.240Z,77.70
2023-05-17T05:24:55.032Z,77.10
2023-05-17T05:27:23.524Z,77.60
2023-05-17T05:29:51.468Z,78.10
2023-05-17T05:32:19.053Z,77.60
2023-05-17T05:34:45.920Z,78.10
2023-05-17T05:37:13.151Z,77.50
2023-05-17T05:39:40.148Z,76.90
2023-05-17T05:42:07.254Z,76.30
2023-05-17T05:44:34.363Z,76.50
2023-05-17T05:47:01.630Z,76.80
2023-05-17T05:49:29.123Z,76.40
2023-05-17T05:51:56.036Z,76.40
2023-05-17T05:54:23.098Z,75.00
2023-05-17T05:56:51.268Z,75.20
2023-05-17T05:59:18.576Z,75.40
2023-05-17T06:01:45.989Z,74.50
2023-05-17T06:04:12.866Z,74.70
2023-05-17T06:06:39.984Z,75.70
2023-05-17T06:09:07.547Z,75.20
2023-05-17T06:11:34.528Z,75.50
2023-05-17T06:14:01.410Z,74.80
2023-05-17T06:16:28.340Z,74.70
2023-05-17T06:18:55.313Z,74.40
2023-05-17T06:21:22.350Z,76.00
2023-05-17T06:23:49.297Z,75.90
2023-05-17T06:26:16.560Z,74.10
2023-05-17T06:28:43.410Z,74.10
2023-05-17T06:31:11.158Z,73.50
2023-05-17T06:33:38.938Z,74.30
2023-05-17T06:36:06.284Z,72.30
2023-05-17T06:38:33.133Z,73.70
2023-05-17T06:41:00.179Z,74.00
2023-05-17T06:43:27.819Z,73.70
2023-05-17T06:45:54.753Z,72.40
2023-05-17T06:48:21.888Z,74.10
2023-05-17T06:50:48.946Z,73.70
2023-05-17T06:53:15.794Z,70.30
2023-05-17T06:55:43.313Z,70.80
2023-05-17T06:58:11.993Z,71.90
2023-05-17T07:00:41.190Z,72.10
2023-05-17T07:03:08.105Z,70.30
2023-05-17T07:05:35.397Z,71.50
2023-05-17T07:08:02.380Z,71.80
2023-05-17T07:10:29.491Z,70.50
2023-05-17T07:12:56.741Z,71.00
2023-05-17T07:15:23.984Z,69.60
2023-05-17T07:17:51.029Z,69.40
2023-05-17T07:20:20.643Z,70.50
2023-05-17T07:22:48.251Z,69.70
2023-05-17T07:25:15.862Z,69.10
2023-05-17T07:27:42.718Z,69.50
2023-05-17T07:30:11.661Z,68.00
2023-05-17T07:32:38.626Z,67.10
2023-05-17T07:35:05.718Z,66.80
2023-05-17T07:37:32.675Z,68.80
2023-05-17T07:40:00.314Z,69.00
2023-05-17T07:42:27.223Z,68.30
2023-05-17T07:44:54.051Z,68.70
2023-05-17T07:47:21.102Z,68.00
2023-05-17T07:49:48.177Z,68.50
2023-05-17T07:52:15.046Z,65.20
2023-05-17T07:54:42.739Z,65.70
2023-05-17T07:57:11.161Z,67.20
2023-05-17T07:59:39.439Z,65.40
2023-05-17T08:02:07.522Z,65.80
2023-05-17T08:04:36.714Z,65.60
2023-05-17T08:07:07.037Z,66.70
2023-05-17T08:09:34.128Z,65.40
2023-05-17T08:12:01.850Z,67.90
2023-05-17T08:14:29.754Z,67.60
2023-05-17T08:16:56.987Z,67.80
2023-05-17T08:19:26.807Z,66.90
2023-05-17T08:21:54.357Z,64.30
2023-05-17T08:24:22.900Z,64.70
2023-05-17T08:26:50.025Z,66.00
2023-05-17T08:29:18.375Z,65.90
2023-05-17T08:31:45.995Z,67.70
2023-05-17T08:34:13.881Z,63.40
2023-05-17T08:36:42.804Z,66.50
2023-05-17T08:39:12.647Z,64.90
2023-05-17T08:41:43.715Z,63.10
2023-05-17T08:44:11.831Z,63.80
2023-05-17T08:46:40.687Z,63.80
2023-05-17T08:49:13.043Z,65.90
2023-05-17T08:51:42.295Z,65.30
2023-05-17T08:54:09.172Z,65.10
2023-05-17T08:56:39.464Z,64.10
2023-05-17T08:59:10.462Z,63.50
2023-05-17T09:01:41.381Z,63.50
2023-05-17T09:04:09.863Z,64.50
2023-05-17T09:06:39.314Z,64.40
2023-05-17T09:09:09.536Z,63.00
2023-05-17T09:11:36.563Z,63.40
2023-05-17T09:14:07.067Z,63.70
2023-05-17T09:16:36.412Z,61.40
2023-05-17T09:19:05.564Z,61.50
2023-05-17T09:21:34.276Z,64.30
2023-05-17T09:26:44.831Z,63.80
2023-05-17T09:29:13.711Z,63.30
2023-05-17T09:31:41.462Z,63.80
2023-05-17T09:34:11.232Z,64.20
2023-05-17T09:36:42.130Z,63.40
2023-05-17T09:39:13.770Z,63.10
2023-05-17T09:41:46.860Z,63.00
2023-05-17T09:44:15.239Z,63.50
2023-05-17T09:46:46.115Z,62.80
2023-05-17T09:49:14.315Z,62.10
2023-05-17T09:51:44.233Z,60.90
2023-05-17T09:54:11.414Z,61.30
2023-05-17T09:56:39.700Z,62.50
2023-05-17T09:59:16.587Z,64.00
2023-05-17T10:01:45.622Z,63.00
2023-05-17T10:04:14.627Z,62.50
2023-05-17T10:06:49.742Z,61.90
2023-05-17T10:09:21.652Z,60.60
2023-05-17T10:11:50.934Z,59.20
2023-05-17T10:14:23.175Z,58.60
2023-05-17T10:16:52.202Z,57.60
2023-05-17T10:19:20.991Z,58.60
2023-05-17T10:21:50.262Z,59.70
2023-05-17T10:24:17.598Z,59.60
2023-05-17T10:26:44.938Z,60.00
2023-05-17T10:29:11.913Z,56.20
2023-05-17T10:31:43.372Z,56.30
2023-05-17T10:34:11.762Z,56.00
2023-05-17T10:36:40.557Z,56.90
2023-05-17T10:39:10.671Z,55.60
2023-05-17T10:41:43.031Z,55.90
2023-05-17T10:44:13.876Z,58.60
2023-05-17T10:46:40.993Z,58.60
2023-05-17T10:49:08.576Z,58.90
2023-05-17T10:51:38.011Z,60.60
2023-05-17T10:54:21.600Z,57.80
2023-05-17T10:56:50.517Z,55.20
2023-05-17T10:59:29.709Z,56.20
2023-05-17T11:02:09.061Z,55.00
2023-05-17T11:04:43.618Z,55.10
2023-05-17T11:07:16.925Z,55.70
2023-05-17T11:10:06.225Z,58.10
2023-05-17T11:12:35.458Z,58.70
2023-05-17T11:15:08.575Z,59.50
2023-05-17T11:17:57.824Z,55.40
2023-05-17T11:20:28.206Z,57.90
2023-05-17T11:23:07.868Z,55.00
2023-05-17T11:25:37.390Z,57.30
2023-05-17T11:28:23.239Z,56.40
2023-05-17T11:30:54.041Z,56.10
2023-05-17T11:33:44.685Z,57.60
2023-05-17T11:36:19.807Z,58.00
2023-05-17T11:38:55.182Z,57.60
2023-05-17T11:41:29.865Z,59.70
2023-05-17T11:43:56.937Z,60.10
2023-05-17T11:46:24.996Z,60.10
2023-05-17T11:48:53.287Z,59.20
2023-05-17T11:51:24.370Z,60.70
2023-05-17T11:53:55.178Z,59.60
2023-05-17T11:56:41.996Z,59.80
2023-05-17T11:59:10.973Z,59.20
2023-05-17T12:01:46.021Z,60.00
2023-05-17T12:04:27.310Z,57.50
2023-05-17T12:06:56.334Z,60.20
2023-05-17T12:09:26.322Z,61.30
2023-05-17T12:11:56.405Z,56.70
2023-05-17T12:14:24.532Z,55.60
2023-05-17T12:16:58.353Z,59.10
2023-05-17T12:19:29.935Z,56.60
2023-05-17T12:22:08.456Z,57.40
2023-05-17T12:24:42.852Z,57.90
2023-05-17T12:27:10.525Z,54.50
2023-05-17T12:29:39.162Z,56.70
2023-05-17T12:32:07.901Z,54.40
2023-05-17T12:34:36.634Z,57.40
2023-05-17T12:37:04.225Z,57.00
2023-05-17T12:39:31.579Z,57.20
2023-05-17T12:41:59.282Z,59.30
2023-05-17T12:44:26.893Z,57.70
2023-05-17T12:46:56.172Z,58.50
2023-05-17T12:49:24.835Z,58.10
2023-05-17T12:51:52.615Z,59.20
2023-05-17T12:54:29.561Z,57.90
2023-05-17T12:56:56.922Z,55.00
2023-05-17T12:59:28.989Z,54.90
2023-05-17T13:01:57.156Z,54.70
2023-05-17T13:04:32.661Z,55.40
2023-05-17T13:07:02.809Z,54.40
2023-05-17T13:09:33.458Z,52.70
2023-05-17T13:12:07.598Z,52.80
2023-05-17T13:14:46.477Z,53.50
2023-05-17T13:17:40.539Z,52.40
2023-05-17T13:20:10.448Z,50.10
2023-05-17T13:22:47.792Z,50.10
2023-05-17T13:25:15.976Z,49.70
2023-05-17T13:27:46.829Z,50.40
2023-05-17T13:30:18.453Z,51.80
2023-05-17T13:32:47.405Z,49.50
2023-05-17T13:35:14.960Z,50.20
2023-05-17T13:37:43.536Z,51.30
2023-05-17T13:40:11.025Z,48.90
2023-05-17T13:42:38.227Z,52.00
2023-05-17T13:45:09.034Z,51.50
2023-05-17T13:47:36.238Z,53.50
2023-05-17T13:50:04.010Z,52.50
2023-05-17T13:52:31.438Z,51.00
2023-05-17T13:54:58.269Z,53.70
2023-05-17T13:57:25.458Z,53.40
2023-05-17T13:59:52.549Z,54.90
2023-05-17T14:02:19.446Z,54.40
2023-05-17T14:04:46.277Z,55.00
2023-05-17T14:07:13.370Z,55.40
2023-05-17T14:09:40.301Z,56.20
2023-05-17T14:12:07.364Z,56.20
2023-05-17T14:14:34.188Z,56.70
2023-05-17T14:17:01.856Z,56.90
2023-05-17T14:19:29.214Z,55.50
2023-05-17T14:21:56.182Z,54.60
2023-05-17T14:24:23.076Z,52.90
2023-05-17T14:26:49.941Z,52.70
2023-05-17T14:29:17.006Z,51.70
2023-05-17T14:31:43.899Z,51.00
2023-05-17T14:34:10.880Z,51.40
2023-05-17T14:36:39.315Z,51.90
2023-05-17T14:39:06.167Z,52.80
2023-05-17T14:41:33.114Z,53.20
2023-05-17T14:44:00.027Z,51.20
2023-05-17T14:46:26.911Z,51.30
2023-05-17T14:48:53.854Z,52.70
2023-05-17T14:51:20.723Z,53.50
2023-05-17T14:53:47.707Z,55.40
2023-05-17T14:56:15.289Z,52.00
2023-05-17T14:58:42.361Z,51.00
2023-05-17T15:01:09.504Z,50.80
2023-05-17T15:03:37.143Z,48.80
2023-05-17T15:06:07.532Z,46.20
2023-05-17T15:08:37.018Z,44.00
2023-05-17T15:11:03.902Z,43.90
2023-05-17T15:13:30.896Z,43.00
2023-05-17T15:15:57.748Z,45.20
2023-05-17T15:18:24.591Z,41.20
2023-05-17T15:20:51.734Z,43.40
2023-05-17T15:23:18.570Z,44.70
2023-05-17T15:25:45.509Z,44.70
2023-05-17T15:28:12.405Z,44.80
2023-05-17T15:30:41.706Z,44.30
2023-05-17T15:33:08.879Z,44.60
2023-05-17T15:35:35.927Z,46.30
2023-05-17T15:38:07.356Z,48.00
2023-05-17T15:40:34.279Z,49.20
2023-05-17T15:43:01.182Z,50.10
2023-05-17T15:45:28.487Z,51.60
2023-05-17T15:47:57.091Z,54.30
2023-05-17T15:50:24.163Z,51.90
2023-05-17T15:52:51.159Z,52.50
2023-05-17T15:55:18.081Z,52.50
2023-05-17T15:57:45.055Z,52.70
2023-05-17T16:00:12.407Z,53.00
2023-05-17T16:02:39.268Z,53.10
2023-05-17T16:05:07.781Z,54.20
2023-05-17T16:07:34.605Z,54.10
2023-05-17T16:10:01.714Z,53.00
2023-05-17T16:12:29.001Z,52.00
2023-05-17T16:14:56.149Z,49.20
2023-05-17T16:17:23.009Z,50.40
2023-05-17T16:19:49.945Z,53.10
2023-05-17T16:22:16.878Z,52.70
2023-05-17T16:24:43.729Z,51.40
2023-05-17T16:27:10.572Z,51.70
2023-05-17T16:29:40.298Z,51.70
2023-05-17T16:32:08.073Z,51.30
2023-05-17T16:34:35.208Z,52.50
2023-05-17T16:37:02.460Z,52.90
2023-05-17T16:39:29.494Z,53.00
2023-05-17T16:41:56.579Z,53.30
2023-05-17T16:44:23.544Z,54.40
2023-05-17T16:46:50.874Z,53.30
2023-05-17T16:49:18.454Z,52.50
2023-05-17T16:51:45.487Z,51.80
2023-05-17T16:54:12.606Z,53.40
2023-05-17T16:56:39.439Z,54.20
2023-05-17T16:59:06.289Z,55.70
2023-05-17T17:01:33.370Z,55.90
2023-05-17T17:04:01.815Z,56.40
2023-05-17T17:06:31.753Z,57.60
2023-05-17T17:08:58.586Z,57.90
2023-05-17T17:11:26.243Z,59.80
2023-05-17T17:13:53.535Z,64.10
2023-05-17T17:16:21.145Z,61.10
2023-05-17T17:18:50.867Z,67.80
2023-05-17T17:21:17.822Z,64.20
2023-05-17T17:23:44.839Z,65.80
2023-05-17T17:26:12.118Z,66.50
2023-05-17T17:28:38.988Z,68.40
2023-05-17T17:31:06.696Z,68.00
2023-05-17T17:33:34.027Z,70.20
2023-05-17T17:36:05.199Z,72.50
2023-05-17T17:38:32.113Z,73.80
2023-05-17T17:40:58.953Z,72.00
2023-05-17T17:43:25.881Z,69.60
2023-05-17T17:45:52.690Z,70.20
2023-05-17T17:48:19.567Z,75.80
2023-05-17T17:50:46.541Z,74.60
2023-05-17T17:53:13.403Z,74.60
2023-05-17T17:55:40.419Z,73.90
2023-05-17T17:58:07.250Z,75.40
2023-05-17T18:00:34.110Z,74.50
2023-05-17T18:03:01.086Z,74.90
2023-05-17T18:05:28.249Z,75.60
2023-05-17T18:07:55.380Z,76.30
2023-05-17T18:10:22.247Z,75.80
2023-05-17T18:12:51.513Z,76.90
2023-05-17T18:15:18.696Z,76.90
2023-05-17T18:17:51.361Z,76.90
2023-05-17T18:20:19.611Z,76.70
2023-05-17T18:22:47.263Z,77.50
2023-05-17T18:25:14.124Z,77.80
2023-05-17T18:27:41.551Z,79.90
2023-05-17T18:30:09.441Z,78.80
2023-05-17T18:32:36.337Z,79.60
2023-05-17T18:35:03.523Z,79.20
2023-05-17T18:37:30.829Z,78.50
2023-05-17T18:39:59.693Z,78.10
2023-05-17T18:42:26.707Z,80.20
2023-05-17T18:44:53.596Z,80.40
2023-05-17T18:47:22.841Z,79.60
2023-05-17T18:49:51.836Z,79.60
2023-05-17T18:52:18.719Z,80.60
2023-05-17T18:54:47.554Z,82.60
2023-05-17T18:57:15.196Z,83.90
2023-05-17T18:59:42.066Z,82.70
2023-05-17T19:02:09.010Z,82.50
2023-05-17T19:04:36.660Z,82.70
2023-05-17T19:07:03.922Z,83.00
2023-05-17T19:09:31.853Z,82.10
2023-05-17T19:11:59.077Z,81.40
2023-05-17T19:14:26.131Z,82.30
2023-05-17T19:16:56.677Z,82.80
2023-05-17T19:19:24.340Z,83.70
2023-05-17T19:21:51.450Z,83.70
2023-05-17T19:24:18.682Z,82.80
2023-05-17T19:26:45.529Z,83.00
2023-05-17T19:29:12.406Z,83.00
2023-05-17T19:31:39.326Z,83.20
2023-05-17T19:34:06.193Z,83.00
2023-05-17T19:36:33.406Z,82.90
2023-05-17T19:39:00.345Z,82.50
2023-05-17T19:41:27.210Z,82.40
2023-05-17T19:43:54.045Z,82.70
2023-05-17T19:46:20.890Z,83.30
2023-05-17T19:48:47.845Z,84.10
2023-05-17T19:51:14.695Z,84.50
2023-05-17T19:53:52.545Z,84.50
2023-05-17T19:56:21.388Z,84.10
2023-05-17T19:58:48.326Z,84.20
2023-05-17T20:01:15.262Z,84.20
2023-05-17T20:03:42.293Z,84.50
2023-05-17T20:06:14.088Z,84.00
2023-05-17T20:08:41.887Z,84.50
2023-05-17T20:11:08.810Z,85.80
2023-05-17T20:13:39.971Z,84.10
2023-05-17T20:16:13.012Z,85.20
2023-05-17T20:18:44.119Z,85.50
2023-05-17T20:21:15.051Z,85.10
2023-05-17T20:23:42.287Z,85.10
2023-05-17T20:26:16.019Z,85.30
2023-05-17T20:28:46.095Z,85.10
2023-05-17T20:31:13.553Z,84.90
2023-05-17T20:33:40.671Z,84.70
2023-05-17T20:36:09.954Z,85.20
2023-05-17T20:38:36.808Z,85.30
2023-05-17T20:41:07.377Z,86.20
2023-05-17T20:43:35.119Z,86.60
2023-05-17T20:46:06.874Z,86.90
2023-05-17T20:48:34.421Z,87.00
2023-05-17T20:51:02.244Z,87.10
2023-05-17T20:53:30.397Z,86.80
2023-05-17T20:55:58.048Z,86.90
2023-05-17T20:58:24.936Z,87.10
2023-05-17T21:00:52.921Z,86.70
2023-05-17T21:03:19.898Z,86.50
2023-05-17T21:05:47.122Z,86.30
2023-05-17T21:08:14.056Z,86.90
2023-05-17T21:10:42.859Z,87.20
2023-05-17T21:13:09.824Z,87.00
2023-05-17T21:15:37.175Z,87.60
2023-05-17T21:18:05.914Z,87.30
2023-05-17T21:20:33.193Z,87.40
2023-05-17T21:23:00.005Z,87.30
2023-05-17T21:25:26.934Z,87.30
2023-05-17T21:27:53.834Z,87.20
2023-05-17T21:30:20.850Z,88.30
2023-05-17T21:32:47.735Z,87.80
2023-05-17T21:35:14.639Z,88.30
2023-05-17T21:37:42.237Z,87.60
2023-05-17T21:40:10.079Z,88.00
2023-05-17T21:42:37.082Z,87.60
2023-05-17T21:45:04.435Z,88.00
2023-05-17T21:47:31.643Z,87.90
2023-05-17T21:49:58.542Z,88.20
2023-05-17T21:52:25.965Z,88.50
2023-05-17T21:54:52.850Z,88.40
2023-05-17T21:57:21.057Z,88.40
2023-05-17T21:59:48.939Z,88.30
2023-05-17T22:02:16.431Z,88.00
2023-05-17T22:04:43.505Z,87.90
2023-05-17T22:07:11.724Z,88.30
2023-05-17T22:09:38.588Z,88.50
2023-05-17T22:12:08.465Z,88.80
2023-05-17T22:14:36.476Z,88.40
2023-05-17T22:17:08.369Z,88.80
2023-05-17T22:19:40.453Z,88.90
2023-05-17T22:22:08.855Z,87.40
2023-05-17T22:24:35.863Z,87.60
2023-05-17T22:27:03.690Z,86.80
2023-05-17T22:29:30.564Z,88.20
2023-05-17T22:31:57.533Z,88.60
2023-05-17T22:34:24.434Z,88.90
2023-05-17T22:36:51.331Z,88.50
2023-05-17T22:39:18.316Z,87.80
2023-05-17T22:41:45.382Z,87.90
2023-05-17T22:44:12.280Z,87.50
2023-05-17T22:46:41.949Z,88.60
2023-05-17T22:49:08.964Z,88.50
2023-05-17T22:51:36.187Z,88.80
2023-05-17T22:54:03.332Z,88.80
2023-05-17T22:56:30.535Z,89.00
2023-05-17T22:58:58.347Z,89.00
2023-05-17T23:01:25.651Z,89.00
2023-05-17T23:03:52.808Z,89.00
2023-05-17T23:06:22.063Z,89.40
2023-05-17T23:08:49.688Z,89.50
2023-05-17T23:11:17.980Z,89.30
2023-05-17T23:13:45.079Z,88.90
2023-05-17T23:16:13.996Z,87.30
2023-05-17T23:18:41.494Z,88.40
2023-05-17T23:21:09.467Z,88.30
2023-05-17T23:23:37.929Z,88.70
2023-05-17T23:26:05.985Z,88.60
2023-05-17T23:28:32.877Z,87.90
2023-05-17T23:31:01.356Z,87.80
2023-05-17T23:33:31.210Z,88.40
2023-05-17T23:35:58.875Z,88.30
2023-05-17T23:38:26.452Z,88.90
2023-05-17T23:40:54.160Z,88.90
2023-05-17T23:43:21.130Z,89.40
2023-05-17T23:45:48.023Z,89.50
2023-05-17T23:48:16.042Z,89.60
2023-05-17T23:50:42.917Z,89.30
2023-05-17T23:53:10.040Z,89.10
2023-05-17T23:55:36.987Z,89.40
2023-05-17T23:58:03.854Z,88.70
